sensor_id;sensor_type;location;lat;lon;timestamp;temperature;humidity
56322;DHT22;42227;6.376;-10.782;2023-03-01T00:02:25;27.50;99.90
56322;DHT22;42227;6.376;-10.782;2023-03-01T00:04:53;27.50;99.90
56322;DHT22;42227;6.376;-10.782;2023-03-01T00:07:21;27.50;99.90
56322;DHT22;42227;6.376;-10.782;2023-03-01T00:09:49;27.40;99.90
56322;DHT22;42227;6.376;-10.782;2023-03-01T00:12:18;27.40;99.90
56322;DHT22;42227;6.376;-10.782;2023-03-01T00:14:46;27.40;99.90
56322;DHT22;42227;6.376;-10.782;2023-03-01T00:17:14;27.40;99.90
56322;DHT22;42227;6.376;-10.782;2023-03-01T00:19:43;27.30;99.90
56322;DHT22;42227;6.376;-10.782;2023-03-01T00:22:11;27.30;99.90
56322;DHT22;42227;6.376;-10.782;2023-03-01T00:24:39;27.20;99.90
56322;DHT22;42227;6.376;-10.782;2023-03-01T00:27:07;27.20;99.90
56322;DHT22;42227;6.376;-10.782;2023-03-01T00:29:36;27.20;99.90
56322;DHT22;42227;6.376;-10.782;2023-03-01T00:32:04;27.20;99.90
56322;DHT22;42227;6.376;-10.782;2023-03-01T00:34:33;27.20;99.90
56322;DHT22;42227;6.376;-10.782;2023-03-01T00:37:01;27.20;99.90
56322;DHT22;42227;6.376;-10.782;2023-03-01T00:39:29;27.20;99.90
56322;DHT22;42227;6.376;-10.782;2023-03-01T00:41:58;27.20;99.90
56322;DHT22;42227;6.376;-10.782;2023-03-01T00:44:26;27.10;99.90
56322;DHT22;42227;6.376;-10.782;2023-03-01T00:46:54;27.10;99.90
56322;DHT22;42227;6.376;-10.782;2023-03-01T00:49:22;27.00;99.90
56322;DHT22;42227;6.376;-10.782;2023-03-01T00:51:51;26.80;99.90
56322;DHT22;42227;6.376;-10.782;2023-03-01T00:54:19;26.80;99.90
56322;DHT22;42227;6.376;-10.782;2023-03-01T00:56:47;26.80;99.90
56322;DHT22;42227;6.376;-10.782;2023-03-01T00:59:16;26.70;99.90
56322;DHT22;42227;6.376;-10.782;2023-03-01T01:01:44;26.60;99.90
56322;DHT22;42227;6.376;-10.782;2023-03-01T01:04:13;26.50;99.90
56322;DHT22;42227;6.376;-10.782;2023-03-01T01:06:46;26.50;99.90
56322;DHT22;42227;6.376;-10.782;2023-03-01T01:09:16;26.40;99.90
56322;DHT22;42227;6.376;-10.782;2023-03-01T01:11:48;26.40;99.90
56322;DHT22;42227;6.376;-10.782;2023-03-01T01:14:17;26.30;99.90
56322;DHT22;42227;6.376;-10.782;2023-03-01T01:16:46;26.50;99.90
56322;DHT22;42227;6.376;-10.782;2023-03-01T01:19:14;26.50;99.90
56322;DHT22;42227;6.376;-10.782;2023-03-01T01:21:43;26.40;99.90
56322;DHT22;42227;6.376;-10.782;2023-03-01T01:24:12;26.40;99.90
56322;DHT22;42227;6.376;-10.782;2023-03-01T01:26:41;26.40;99.90
56322;DHT22;42227;6.376;-10.782;2023-03-01T01:29:09;26.50;99.90
56322;DHT22;42227;6.376;-10.782;2023-03-01T01:31:40;26.70;99.90
56322;DHT22;42227;6.376;-10.782;2023-03-01T01:34:16;26.60;99.90
56322;DHT22;42227;6.376;-10.782;2023-03-01T01:36:51;26.40;99.90
56322;DHT22;42227;6.376;-10.782;2023-03-01T01:39:21;26.30;99.90
56322;DHT22;42227;6.376;-10.782;2023-03-01T01:41:49;26.20;99.90
56322;DHT22;42227;6.376;-10.782;2023-03-01T01:44:26;26.10;99.90
56322;DHT22;42227;6.376;-10.782;2023-03-01T01:49:35;26.20;99.90
56322;DHT22;42227;6.376;-10.782;2023-03-01T01:52:22;26.20;99.90
56322;DHT22;42227;6.376;-10.782;2023-03-01T01:55:14;26.10;99.90
56322;DHT22;42227;6.376;-10.782;2023-03-01T01:57:52;25.90;99.90
56322;DHT22;42227;6.376;-10.782;2023-03-01T02:00:23;25.90;99.90
56322;DHT22;42227;6.376;-10.782;2023-03-01T02:03:19;25.80;99.90
56322;DHT22;42227;6.376;-10.782;2023-03-01T02:08:25;25.80;99.90
56322;DHT22;42227;6.376;-10.782;2023-03-01T02:10:56;25.80;99.90
56322;DHT22;42227;6.376;-10.782;2023-03-01T02:13:25;25.80;99.90
56322;DHT22;42227;6.376;-10.782;2023-03-01T02:15:54;25.90;99.90
56322;DHT22;42227;6.376;-10.782;2023-03-01T02:18:23;25.90;99.90
56322;DHT22;42227;6.376;-10.782;2023-03-01T02:20:59;25.90;99.90
56322;DHT22;42227;6.376;-10.782;2023-03-01T02:23:30;25.90;99.90
56322;DHT22;42227;6.376;-10.782;2023-03-01T02:26:06;26.00;99.90
56322;DHT22;42227;6.376;-10.782;2023-03-01T02:28:37;26.10;99.90
56322;DHT22;42227;6.376;-10.782;2023-03-01T02:31:07;26.00;99.90
56322;DHT22;42227;6.376;-10.782;2023-03-01T02:33:38;25.90;99.90
56322;DHT22;42227;6.376;-10.782;2023-03-01T02:36:10;26.00;99.90
56322;DHT22;42227;6.376;-10.782;2023-03-01T02:38:41;26.00;99.90
56322;DHT22;42227;6.376;-10.782;2023-03-01T02:41:13;26.10;99.90
56322;DHT22;42227;6.376;-10.782;2023-03-01T02:43:42;26.10;99.90
56322;DHT22;42227;6.376;-10.782;2023-03-01T02:46:23;26.10;99.90
56322;DHT22;42227;6.376;-10.782;2023-03-01T02:48:54;26.00;99.90
56322;DHT22;42227;6.376;-10.782;2023-03-01T02:54:11;26.00;99.90
56322;DHT22;42227;6.376;-10.782;2023-03-01T02:56:43;26.00;99.90
56322;DHT22;42227;6.376;-10.782;2023-03-01T02:59:12;26.00;99.90
56322;DHT22;42227;6.376;-10.782;2023-03-01T03:01:40;26.00;99.90
56322;DHT22;42227;6.376;-10.782;2023-03-01T03:04:11;25.90;99.90
56322;DHT22;42227;6.376;-10.782;2023-03-01T03:06:42;25.90;99.90
56322;DHT22;42227;6.376;-10.782;2023-03-01T03:09:12;25.90;99.90
56322;DHT22;42227;6.376;-10.782;2023-03-01T03:11:44;25.90;99.90
56322;DHT22;42227;6.376;-10.782;2023-03-01T03:14:14;25.90;99.90
56322;DHT22;42227;6.376;-10.782;2023-03-01T03:16:48;25.90;99.90
56322;DHT22;42227;6.376;-10.782;2023-03-01T03:19:18;25.90;99.90
56322;DHT22;42227;6.376;-10.782;2023-03-01T03:21:46;25.90;99.90
56322;DHT22;42227;6.376;-10.782;2023-03-01T03:24:14;25.90;99.90
56322;DHT22;42227;6.376;-10.782;2023-03-01T03:26:42;25.90;99.90
56322;DHT22;42227;6.376;-10.782;2023-03-01T03:29:11;25.90;99.90
56322;DHT22;42227;6.376;-10.782;2023-03-01T03:31:39;25.80;99.90
56322;DHT22;42227;6.376;-10.782;2023-03-01T03:34:07;25.90;99.90
56322;DHT22;42227;6.376;-10.782;2023-03-01T03:36:35;26.00;99.90
56322;DHT22;42227;6.376;-10.782;2023-03-01T03:39:04;26.00;99.90
56322;DHT22;42227;6.376;-10.782;2023-03-01T03:41:34;26.00;99.90
56322;DHT22;42227;6.376;-10.782;2023-03-01T03:44:03;26.10;99.90
56322;DHT22;42227;6.376;-10.782;2023-03-01T03:46:31;26.10;99.90
56322;DHT22;42227;6.376;-10.782;2023-03-01T03:48:59;26.10;99.90
56322;DHT22;42227;6.376;-10.782;2023-03-01T03:51:28;26.10;99.90
56322;DHT22;42227;6.376;-10.782;2023-03-01T03:53:56;26.10;99.90
56322;DHT22;42227;6.376;-10.782;2023-03-01T03:56:24;26.10;99.90
56322;DHT22;42227;6.376;-10.782;2023-03-01T03:58:55;26.10;99.90
56322;DHT22;42227;6.376;-10.782;2023-03-01T04:01:23;26.10;99.90
56322;DHT22;42227;6.376;-10.782;2023-03-01T04:03:51;26.10;99.90
56322;DHT22;42227;6.376;-10.782;2023-03-01T04:06:20;26.20;99.90
56322;DHT22;42227;6.376;-10.782;2023-03-01T04:08:48;26.20;99.90
56322;DHT22;42227;6.376;-10.782;2023-03-01T04:11:16;26.20;99.90
56322;DHT22;42227;6.376;-10.782;2023-03-01T04:13:45;26.20;99.90
56322;DHT22;42227;6.376;-10.782;2023-03-01T04:16:13;26.20;99.90
56322;DHT22;42227;6.376;-10.782;2023-03-01T04:18:41;26.20;99.90
56322;DHT22;42227;6.376;-10.782;2023-03-01T04:21:10;26.20;99.90
56322;DHT22;42227;6.376;-10.782;2023-03-01T04:23:38;26.10;99.90
56322;DHT22;42227;6.376;-10.782;2023-03-01T04:26:07;26.20;99.90
56322;DHT22;42227;6.376;-10.782;2023-03-01T04:28:38;26.20;99.90
56322;DHT22;42227;6.376;-10.782;2023-03-01T04:31:09;26.10;99.90
56322;DHT22;42227;6.376;-10.782;2023-03-01T04:33:38;26.10;99.90
56322;DHT22;42227;6.376;-10.782;2023-03-01T04:36:08;26.10;99.90
56322;DHT22;42227;6.376;-10.782;2023-03-01T04:38:37;26.10;99.90
56322;DHT22;42227;6.376;-10.782;2023-03-01T04:41:07;26.00;99.90
56322;DHT22;42227;6.376;-10.782;2023-03-01T04:43:37;26.10;99.90
56322;DHT22;42227;6.376;-10.782;2023-03-01T04:46:14;26.10;99.90
56322;DHT22;42227;6.376;-10.782;2023-03-01T04:48:44;26.10;99.90
56322;DHT22;42227;6.376;-10.782;2023-03-01T04:51:12;26.10;99.90
56322;DHT22;42227;6.376;-10.782;2023-03-01T04:53:42;26.10;99.90
56322;DHT22;42227;6.376;-10.782;2023-03-01T04:56:10;26.10;99.90
56322;DHT22;42227;6.376;-10.782;2023-03-01T04:58:39;26.10;99.90
56322;DHT22;42227;6.376;-10.782;2023-03-01T05:01:15;26.10;99.90
56322;DHT22;42227;6.376;-10.782;2023-03-01T05:03:46;26.00;99.90
56322;DHT22;42227;6.376;-10.782;2023-03-01T05:06:15;26.00;99.90
56322;DHT22;42227;6.376;-10.782;2023-03-01T05:08:44;26.00;99.90
56322;DHT22;42227;6.376;-10.782;2023-03-01T05:11:13;26.00;99.90
56322;DHT22;42227;6.376;-10.782;2023-03-01T05:13:41;25.90;99.90
56322;DHT22;42227;6.376;-10.782;2023-03-01T05:16:10;26.00;99.90
56322;DHT22;42227;6.376;-10.782;2023-03-01T05:18:39;25.90;99.90
56322;DHT22;42227;6.376;-10.782;2023-03-01T05:21:11;25.90;99.90
56322;DHT22;42227;6.376;-10.782;2023-03-01T05:23:39;25.90;99.90
56322;DHT22;42227;6.376;-10.782;2023-03-01T05:26:08;25.90;99.90
56322;DHT22;42227;6.376;-10.782;2023-03-01T05:28:54;26.00;99.90
56322;DHT22;42227;6.376;-10.782;2023-03-01T05:31:22;25.90;99.90
56322;DHT22;42227;6.376;-10.782;2023-03-01T05:33:51;25.80;99.90
56322;DHT22;42227;6.376;-10.782;2023-03-01T05:36:22;25.90;99.90
56322;DHT22;42227;6.376;-10.782;2023-03-01T05:38:51;25.80;99.90
56322;DHT22;42227;6.376;-10.782;2023-03-01T05:41:19;25.80;99.90
56322;DHT22;42227;6.376;-10.782;2023-03-01T05:43:47;25.80;99.90
56322;DHT22;42227;6.376;-10.782;2023-03-01T05:46:15;25.80;99.90
56322;DHT22;42227;6.376;-10.782;2023-03-01T05:48:44;25.70;99.90
56322;DHT22;42227;6.376;-10.782;2023-03-01T05:51:12;25.70;99.90
56322;DHT22;42227;6.376;-10.782;2023-03-01T05:53:41;25.70;99.90
56322;DHT22;42227;6.376;-10.782;2023-03-01T05:56:09;25.70;99.90
56322;DHT22;42227;6.376;-10.782;2023-03-01T05:58:37;25.60;99.90
56322;DHT22;42227;6.376;-10.782;2023-03-01T06:01:10;25.60;99.90
56322;DHT22;42227;6.376;-10.782;2023-03-01T06:03:40;25.60;99.90
56322;DHT22;42227;6.376;-10.782;2023-03-01T06:06:08;25.50;99.90
56322;DHT22;42227;6.376;-10.782;2023-03-01T06:08:37;25.50;99.90
56322;DHT22;42227;6.376;-10.782;2023-03-01T06:11:05;25.50;99.90
56322;DHT22;42227;6.376;-10.782;2023-03-01T06:13:33;25.50;99.90
56322;DHT22;42227;6.376;-10.782;2023-03-01T06:16:05;25.50;99.90
56322;DHT22;42227;6.376;-10.782;2023-03-01T06:18:33;25.50;99.90
56322;DHT22;42227;6.376;-10.782;2023-03-01T06:21:02;25.50;99.90
56322;DHT22;42227;6.376;-10.782;2023-03-01T06:23:31;25.50;99.90
56322;DHT22;42227;6.376;-10.782;2023-03-01T06:26:00;25.40;99.90
56322;DHT22;42227;6.376;-10.782;2023-03-01T06:28:28;25.30;99.90
56322;DHT22;42227;6.376;-10.782;2023-03-01T06:30:57;25.20;99.90
56322;DHT22;42227;6.376;-10.782;2023-03-01T06:33:25;25.10;99.90
56322;DHT22;42227;6.376;-10.782;2023-03-01T06:35:56;25.20;99.90
56322;DHT22;42227;6.376;-10.782;2023-03-01T06:38:25;25.20;99.90
56322;DHT22;42227;6.376;-10.782;2023-03-01T06:40:54;25.10;99.90
56322;DHT22;42227;6.376;-10.782;2023-03-01T06:43:23;25.10;99.90
56322;DHT22;42227;6.376;-10.782;2023-03-01T06:45:51;25.10;99.90
56322;DHT22;42227;6.376;-10.782;2023-03-01T06:48:20;25.10;99.90
56322;DHT22;42227;6.376;-10.782;2023-03-01T06:50:48;25.10;99.90
56322;DHT22;42227;6.376;-10.782;2023-03-01T06:53:16;25.10;99.90
56322;DHT22;42227;6.376;-10.782;2023-03-01T06:55:45;25.10;99.90
56322;DHT22;42227;6.376;-10.782;2023-03-01T06:58:13;25.10;99.90
56322;DHT22;42227;6.376;-10.782;2023-03-01T07:00:41;25.10;99.90
56322;DHT22;42227;6.376;-10.782;2023-03-01T07:03:10;25.10;99.90
56322;DHT22;42227;6.376;-10.782;2023-03-01T07:05:38;25.10;99.90
56322;DHT22;42227;6.376;-10.782;2023-03-01T07:08:06;25.10;99.90
56322;DHT22;42227;6.376;-10.782;2023-03-01T07:10:34;25.20;99.90
56322;DHT22;42227;6.376;-10.782;2023-03-01T07:13:03;25.30;99.90
56322;DHT22;42227;6.376;-10.782;2023-03-01T07:15:31;25.40;99.90
56322;DHT22;42227;6.376;-10.782;2023-03-01T07:17:59;25.60;99.90
56322;DHT22;42227;6.376;-10.782;2023-03-01T07:20:27;25.80;99.90
56322;DHT22;42227;6.376;-10.782;2023-03-01T07:22:56;25.80;99.90
56322;DHT22;42227;6.376;-10.782;2023-03-01T07:25:25;26.00;99.90
56322;DHT22;42227;6.376;-10.782;2023-03-01T07:27:54;26.10;99.90
56322;DHT22;42227;6.376;-10.782;2023-03-01T07:30:22;26.60;99.90
56322;DHT22;42227;6.376;-10.782;2023-03-01T07:32:51;27.10;99.90
56322;DHT22;42227;6.376;-10.782;2023-03-01T07:35:23;27.20;99.90
56322;DHT22;42227;6.376;-10.782;2023-03-01T07:37:51;27.50;99.90
56322;DHT22;42227;6.376;-10.782;2023-03-01T07:40:19;28.10;99.90
56322;DHT22;42227;6.376;-10.782;2023-03-01T07:42:48;28.70;99.90
56322;DHT22;42227;6.376;-10.782;2023-03-01T07:45:16;29.00;99.90
56322;DHT22;42227;6.376;-10.782;2023-03-01T07:47:44;29.30;99.90
56322;DHT22;42227;6.376;-10.782;2023-03-01T07:50:12;29.40;99.90
56322;DHT22;42227;6.376;-10.782;2023-03-01T07:52:41;29.00;99.90
56322;DHT22;42227;6.376;-10.782;2023-03-01T07:55:09;28.90;99.90
56322;DHT22;42227;6.376;-10.782;2023-03-01T07:57:38;30.10;99.90
56322;DHT22;42227;6.376;-10.782;2023-03-01T08:00:08;30.90;99.90
56322;DHT22;42227;6.376;-10.782;2023-03-01T08:02:40;31.50;99.90
56322;DHT22;42227;6.376;-10.782;2023-03-01T08:05:09;32.10;99.90
56322;DHT22;42227;6.376;-10.782;2023-03-01T08:07:38;33.00;99.90
56322;DHT22;42227;6.376;-10.782;2023-03-01T08:10:06;33.60;99.90
56322;DHT22;42227;6.376;-10.782;2023-03-01T08:12:34;34.10;99.90
56322;DHT22;42227;6.376;-10.782;2023-03-01T08:15:03;34.90;99.90
56322;DHT22;42227;6.376;-10.782;2023-03-01T08:17:32;35.10;99.40
56322;DHT22;42227;6.376;-10.782;2023-03-01T08:20:00;35.40;98.50
56322;DHT22;42227;6.376;-10.782;2023-03-01T08:22:31;35.10;98.80
56322;DHT22;42227;6.376;-10.782;2023-03-01T08:24:59;35.60;97.90
56322;DHT22;42227;6.376;-10.782;2023-03-01T08:27:29;36.40;96.50
56322;DHT22;42227;6.376;-10.782;2023-03-01T08:29:57;36.70;95.70
56322;DHT22;42227;6.376;-10.782;2023-03-01T08:32:25;36.80;95.10
56322;DHT22;42227;6.376;-10.782;2023-03-01T08:34:54;36.90;95.00
56322;DHT22;42227;6.376;-10.782;2023-03-01T08:37:22;37.60;94.50
56322;DHT22;42227;6.376;-10.782;2023-03-01T08:39:50;37.90;93.20
56322;DHT22;42227;6.376;-10.782;2023-03-01T08:42:19;38.50;92.40
56322;DHT22;42227;6.376;-10.782;2023-03-01T08:44:47;38.90;91.80
56322;DHT22;42227;6.376;-10.782;2023-03-01T08:47:15;39.30;90.60
56322;DHT22;42227;6.376;-10.782;2023-03-01T08:49:44;39.20;90.80
56322;DHT22;42227;6.376;-10.782;2023-03-01T08:52:12;39.70;89.90
56322;DHT22;42227;6.376;-10.782;2023-03-01T08:54:40;39.90;88.50
56322;DHT22;42227;6.376;-10.782;2023-03-01T08:57:08;40.30;87.00
56322;DHT22;42227;6.376;-10.782;2023-03-01T08:59:36;41.00;84.80
56322;DHT22;42227;6.376;-10.782;2023-03-01T09:02:10;41.20;82.90
56322;DHT22;42227;6.376;-10.782;2023-03-01T09:04:40;41.30;82.30
56322;DHT22;42227;6.376;-10.782;2023-03-01T09:07:09;41.20;81.70
56322;DHT22;42227;6.376;-10.782;2023-03-01T09:09:37;41.90;80.10
56322;DHT22;42227;6.376;-10.782;2023-03-01T09:12:06;41.80;79.00
56322;DHT22;42227;6.376;-10.782;2023-03-01T09:14:34;41.60;79.90
56322;DHT22;42227;6.376;-10.782;2023-03-01T09:17:02;41.80;78.60
56322;DHT22;42227;6.376;-10.782;2023-03-01T09:19:31;41.90;78.50
56322;DHT22;42227;6.376;-10.782;2023-03-01T09:21:59;41.60;78.90
56322;DHT22;42227;6.376;-10.782;2023-03-01T09:24:27;42.10;77.80
56322;DHT22;42227;6.376;-10.782;2023-03-01T09:26:56;42.30;77.50
56322;DHT22;42227;6.376;-10.782;2023-03-01T09:29:25;41.90;77.90
56322;DHT22;42227;6.376;-10.782;2023-03-01T09:31:53;41.90;77.90
56322;DHT22;42227;6.376;-10.782;2023-03-01T09:34:22;40.70;79.70
56322;DHT22;42227;6.376;-10.782;2023-03-01T09:36:51;38.20;87.10
56322;DHT22;42227;6.376;-10.782;2023-03-01T09:39:20;37.10;91.40
56322;DHT22;42227;6.376;-10.782;2023-03-01T09:42:00;36.60;92.90
56322;DHT22;42227;6.376;-10.782;2023-03-01T09:44:52;36.20;93.60
56322;DHT22;42227;6.376;-10.782;2023-03-01T09:47:30;36.10;94.10
56322;DHT22;42227;6.376;-10.782;2023-03-01T09:50:15;35.90;94.90
56322;DHT22;42227;6.376;-10.782;2023-03-01T09:52:50;35.50;95.80
56322;DHT22;42227;6.376;-10.782;2023-03-01T09:55:41;35.00;96.40
56322;DHT22;42227;6.376;-10.782;2023-03-01T10:00:57;35.00;97.10
56322;DHT22;42227;6.376;-10.782;2023-03-01T10:03:37;34.60;97.80
56322;DHT22;42227;6.376;-10.782;2023-03-01T10:06:21;34.50;98.20
56322;DHT22;42227;6.376;-10.782;2023-03-01T10:09:11;34.80;98.00
56322;DHT22;42227;6.376;-10.782;2023-03-01T10:11:50;34.70;97.70
56322;DHT22;42227;6.376;-10.782;2023-03-01T10:14:48;34.00;98.80
56322;DHT22;42227;6.376;-10.782;2023-03-01T10:20:56;34.10;99.10
56322;DHT22;42227;6.376;-10.782;2023-03-01T10:23:32;33.40;99.80
56322;DHT22;42227;6.376;-10.782;2023-03-01T10:29:06;33.40;99.90
56322;DHT22;42227;6.376;-10.782;2023-03-01T10:31:48;33.10;99.90
56322;DHT22;42227;6.376;-10.782;2023-03-01T10:34:21;33.40;99.90
56322;DHT22;42227;6.376;-10.782;2023-03-01T10:36:51;33.20;99.90
56322;DHT22;42227;6.376;-10.782;2023-03-01T10:39:23;33.10;99.90
56322;DHT22;42227;6.376;-10.782;2023-03-01T10:44:42;33.20;99.90
56322;DHT22;42227;6.376;-10.782;2023-03-01T10:50:03;33.30;99.90
56322;DHT22;42227;6.376;-10.782;2023-03-01T10:52:40;33.80;99.90
56322;DHT22;42227;6.376;-10.782;2023-03-01T10:55:30;33.60;99.90
56322;DHT22;42227;6.376;-10.782;2023-03-01T10:58:20;33.60;99.90
56322;DHT22;42227;6.376;-10.782;2023-03-01T11:00:57;33.90;99.90
56322;DHT22;42227;6.376;-10.782;2023-03-01T11:03:29;33.80;99.90
56322;DHT22;42227;6.376;-10.782;2023-03-01T11:08:36;33.90;99.90
56322;DHT22;42227;6.376;-10.782;2023-03-01T11:11:10;33.80;99.90
56322;DHT22;42227;6.376;-10.782;2023-03-01T11:13:51;33.90;99.90
56322;DHT22;42227;6.376;-10.782;2023-03-01T11:19:12;33.50;99.90
56322;DHT22;42227;6.376;-10.782;2023-03-01T11:24:14;33.70;99.90
56322;DHT22;42227;6.376;-10.782;2023-03-01T11:26:46;33.60;99.90
56322;DHT22;42227;6.376;-10.782;2023-03-01T11:29:41;33.30;99.90
56322;DHT22;42227;6.376;-10.782;2023-03-01T11:32:16;33.20;99.90
56322;DHT22;42227;6.376;-10.782;2023-03-01T11:34:55;33.10;99.90
56322;DHT22;42227;6.376;-10.782;2023-03-01T11:37:44;33.30;99.90
56322;DHT22;42227;6.376;-10.782;2023-03-01T11:40:24;33.40;99.90
56322;DHT22;42227;6.376;-10.782;2023-03-01T11:43:17;33.30;99.90
56322;DHT22;42227;6.376;-10.782;2023-03-01T11:51:25;33.00;99.90
56322;DHT22;42227;6.376;-10.782;2023-03-01T11:56:31;33.50;99.90
56322;DHT22;42227;6.376;-10.782;2023-03-01T12:02:35;33.10;99.90
56322;DHT22;42227;6.376;-10.782;2023-03-01T12:05:40;33.10;99.90
56322;DHT22;42227;6.376;-10.782;2023-03-01T12:08:21;33.00;99.90
56322;DHT22;42227;6.376;-10.782;2023-03-01T12:16:56;33.20;99.90
56322;DHT22;42227;6.376;-10.782;2023-03-01T12:19:37;32.90;99.90
56322;DHT22;42227;6.376;-10.782;2023-03-01T12:27:37;32.80;99.90
56322;DHT22;42227;6.376;-10.782;2023-03-01T12:35:51;32.60;99.90
56322;DHT22;42227;6.376;-10.782;2023-03-01T12:38:42;32.90;99.90
56322;DHT22;42227;6.376;-10.782;2023-03-01T12:41:21;32.60;99.90
56322;DHT22;42227;6.376;-10.782;2023-03-01T12:49:28;32.20;99.90
56322;DHT22;42227;6.376;-10.782;2023-03-01T12:52:08;32.40;99.90
56322;DHT22;42227;6.376;-10.782;2023-03-01T12:54:38;32.40;99.90
56322;DHT22;42227;6.376;-10.782;2023-03-01T12:57:31;32.70;99.90
56322;DHT22;42227;6.376;-10.782;2023-03-01T13:06:15;32.30;99.90
56322;DHT22;42227;6.376;-10.782;2023-03-01T13:09:03;32.40;99.90
56322;DHT22;42227;6.376;-10.782;2023-03-01T13:11:34;32.70;99.90
56322;DHT22;42227;6.376;-10.782;2023-03-01T13:16:49;32.60;99.90
56322;DHT22;42227;6.376;-10.782;2023-03-01T13:19:26;32.40;99.90
56322;DHT22;42227;6.376;-10.782;2023-03-01T13:21:58;32.40;99.90
56322;DHT22;42227;6.376;-10.782;2023-03-01T13:27:23;32.20;99.90
56322;DHT22;42227;6.376;-10.782;2023-03-01T13:29:59;32.20;99.90
56322;DHT22;42227;6.376;-10.782;2023-03-01T13:32:36;32.50;99.90
56322;DHT22;42227;6.376;-10.782;2023-03-01T13:37:48;32.50;99.90
56322;DHT22;42227;6.376;-10.782;2023-03-01T13:42:50;32.70;99.90
56322;DHT22;42227;6.376;-10.782;2023-03-01T13:45:36;32.50;99.90
56322;DHT22;42227;6.376;-10.782;2023-03-01T13:48:27;32.50;99.90
56322;DHT22;42227;6.376;-10.782;2023-03-01T13:51:05;32.40;99.90
56322;DHT22;42227;6.376;-10.782;2023-03-01T13:53:39;32.40;99.90
56322;DHT22;42227;6.376;-10.782;2023-03-01T13:56:18;32.40;99.90
56322;DHT22;42227;6.376;-10.782;2023-03-01T13:59:17;32.50;99.90
56322;DHT22;42227;6.376;-10.782;2023-03-01T14:01:57;32.40;99.90
56322;DHT22;42227;6.376;-10.782;2023-03-01T14:04:33;32.50;99.90
56322;DHT22;42227;6.376;-10.782;2023-03-01T14:07:12;32.60;99.90
56322;DHT22;42227;6.376;-10.782;2023-03-01T14:09:50;32.80;99.90
56322;DHT22;42227;6.376;-10.782;2023-03-01T14:12:44;32.40;99.90
56322;DHT22;42227;6.376;-10.782;2023-03-01T14:15:50;32.50;99.90
56322;DHT22;42227;6.376;-10.782;2023-03-01T14:21:09;32.40;99.90
56322;DHT22;42227;6.376;-10.782;2023-03-01T14:23:39;32.60;99.90
56322;DHT22;42227;6.376;-10.782;2023-03-01T14:26:09;32.50;99.90
56322;DHT22;42227;6.376;-10.782;2023-03-01T14:28:38;32.20;99.90
56322;DHT22;42227;6.376;-10.782;2023-03-01T14:31:34;32.40;99.90
56322;DHT22;42227;6.376;-10.782;2023-03-01T14:34:21;32.30;99.90
56322;DHT22;42227;6.376;-10.782;2023-03-01T14:36:50;32.40;99.90
56322;DHT22;42227;6.376;-10.782;2023-03-01T14:39:23;32.50;99.90
56322;DHT22;42227;6.376;-10.782;2023-03-01T14:41:52;32.50;99.90
56322;DHT22;42227;6.376;-10.782;2023-03-01T14:44:24;32.50;99.90
56322;DHT22;42227;6.376;-10.782;2023-03-01T14:46:56;32.20;99.90
56322;DHT22;42227;6.376;-10.782;2023-03-01T14:49:28;32.30;99.90
56322;DHT22;42227;6.376;-10.782;2023-03-01T14:57:27;32.20;99.90
56322;DHT22;42227;6.376;-10.782;2023-03-01T15:00:00;32.10;99.90
56322;DHT22;42227;6.376;-10.782;2023-03-01T15:02:30;32.20;99.90
56322;DHT22;42227;6.376;-10.782;2023-03-01T15:05:02;32.20;99.90
56322;DHT22;42227;6.376;-10.782;2023-03-01T15:07:38;32.20;99.90
56322;DHT22;42227;6.376;-10.782;2023-03-01T15:10:19;32.00;99.90
56322;DHT22;42227;6.376;-10.782;2023-03-01T15:12:48;32.40;99.90
56322;DHT22;42227;6.376;-10.782;2023-03-01T15:15:45;32.00;99.90
56322;DHT22;42227;6.376;-10.782;2023-03-01T15:20:48;31.90;99.90
56322;DHT22;42227;6.376;-10.782;2023-03-01T15:23:24;32.10;99.90
56322;DHT22;42227;6.376;-10.782;2023-03-01T15:25:56;32.10;99.90
56322;DHT22;42227;6.376;-10.782;2023-03-01T15:28:29;32.00;99.90
56322;DHT22;42227;6.376;-10.782;2023-03-01T15:31:11;31.80;99.90
56322;DHT22;42227;6.376;-10.782;2023-03-01T15:33:41;31.70;99.90
56322;DHT22;42227;6.376;-10.782;2023-03-01T15:39:41;31.60;99.90
56322;DHT22;42227;6.376;-10.782;2023-03-01T15:47:52;31.70;99.90
56322;DHT22;42227;6.376;-10.782;2023-03-01T15:50:25;31.80;99.90
56322;DHT22;42227;6.376;-10.782;2023-03-01T15:52:54;31.80;99.90
56322;DHT22;42227;6.376;-10.782;2023-03-01T15:55:28;31.90;99.90
56322;DHT22;42227;6.376;-10.782;2023-03-01T15:58:02;31.80;99.90
56322;DHT22;42227;6.376;-10.782;2023-03-01T16:00:31;31.70;99.90
56322;DHT22;42227;6.376;-10.782;2023-03-01T16:02:59;31.40;99.90
56322;DHT22;42227;6.376;-10.782;2023-03-01T16:05:30;31.20;99.90
56322;DHT22;42227;6.376;-10.782;2023-03-01T16:07:59;31.10;99.90
56322;DHT22;42227;6.376;-10.782;2023-03-01T16:10:28;31.00;99.90
56322;DHT22;42227;6.376;-10.782;2023-03-01T16:12:56;31.00;99.90
56322;DHT22;42227;6.376;-10.782;2023-03-01T16:15:29;31.30;99.90
56322;DHT22;42227;6.376;-10.782;2023-03-01T16:17:59;31.00;99.90
56322;DHT22;42227;6.376;-10.782;2023-03-01T16:20:28;30.90;99.90
56322;DHT22;42227;6.376;-10.782;2023-03-01T16:23:06;31.00;99.90
56322;DHT22;42227;6.376;-10.782;2023-03-01T16:25:35;31.10;99.90
56322;DHT22;42227;6.376;-10.782;2023-03-01T16:28:04;31.00;99.90
56322;DHT22;42227;6.376;-10.782;2023-03-01T16:30:32;30.70;99.90
56322;DHT22;42227;6.376;-10.782;2023-03-01T16:33:03;30.60;99.90
56322;DHT22;42227;6.376;-10.782;2023-03-01T16:35:42;30.80;99.90
56322;DHT22;42227;6.376;-10.782;2023-03-01T16:38:11;30.60;99.90
56322;DHT22;42227;6.376;-10.782;2023-03-01T16:40:39;30.70;99.90
56322;DHT22;42227;6.376;-10.782;2023-03-01T16:43:14;31.00;99.90
56322;DHT22;42227;6.376;-10.782;2023-03-01T16:45:42;30.90;99.90
56322;DHT22;42227;6.376;-10.782;2023-03-01T16:48:11;30.90;99.90
56322;DHT22;42227;6.376;-10.782;2023-03-01T16:50:40;30.70;99.90
56322;DHT22;42227;6.376;-10.782;2023-03-01T16:53:08;30.80;99.90
56322;DHT22;42227;6.376;-10.782;2023-03-01T16:55:36;30.70;99.90
56322;DHT22;42227;6.376;-10.782;2023-03-01T16:58:05;30.60;99.90
56322;DHT22;42227;6.376;-10.782;2023-03-01T17:00:33;30.60;99.90
56322;DHT22;42227;6.376;-10.782;2023-03-01T17:03:04;30.40;99.90
56322;DHT22;42227;6.376;-10.782;2023-03-01T17:05:33;30.20;99.90
56322;DHT22;42227;6.376;-10.782;2023-03-01T17:08:01;30.40;99.90
56322;DHT22;42227;6.376;-10.782;2023-03-01T17:10:29;30.40;99.90
56322;DHT22;42227;6.376;-10.782;2023-03-01T17:12:57;30.30;99.90
56322;DHT22;42227;6.376;-10.782;2023-03-01T17:15:26;30.20;99.90
56322;DHT22;42227;6.376;-10.782;2023-03-01T17:17:54;30.30;99.90
56322;DHT22;42227;6.376;-10.782;2023-03-01T17:20:22;30.40;99.90
56322;DHT22;42227;6.376;-10.782;2023-03-01T17:22:51;30.60;99.90
56322;DHT22;42227;6.376;-10.782;2023-03-01T17:25:19;30.40;99.90
56322;DHT22;42227;6.376;-10.782;2023-03-01T17:27:47;30.30;99.90